Terminal Aerodrome Forecast
Issued by NWS

Home | Current Version | Previous Version | Text Only | Print | Product List | Glossary On
Versions: 1 2 3 4 5 6 7 8 9 10 11 12 13
000
FTUS41 KCAR 281120
TAFFVE
TAF
KFVE 281120Z 2812/2912 00000KT P6SM SCT005
     FM281300 00000KT P6SM SCT150
     FM290100 06006KT P6SM BKN050
     FM290300 07007KT P6SM VCSH BKN010
     FM290700 09010KT P6SM -RA OVC007=

USA.gov is the U.S. government's official web portal to all federal, state and local government web resources and services.